Time;durP1;ratioP1;P1;durP2;ratioP2;P2;SDS_P1;SDS_P2;PMS_P1;PMS_P2;Temp;Humidity;BMP_temperature;BMP_pressure;BME280_temperature;BME280_humidity;BME280_pressure;Samples;Min_cycle;Max_cycle;Signal;HPM_P1;HPM_P2
2021/11/09 00:03:32;;;;;;;9.17;5.97;;;6.30;38.80;;;;;;10338516;28;20937;-73
2021/11/09 00:08:42;;;;;;;6.80;5.83;;;6.20;39.00;;;;;;10336873;28;20793;-73
2021/11/09 00:13:45;;;;;;;7.27;5.23;;;6.10;39.10;;;;;;10341459;28;20317;-72
2021/11/09 00:18:49;;;;;;;7.13;5.80;;;6.10;39.10;;;;;;10335688;28;20313;-72
2021/11/09 00:23:54;;;;;;;7.53;6.33;;;5.80;39.10;;;;;;10342269;28;20733;-72
2021/11/09 00:28:58;;;;;;;7.80;5.60;;;6.00;39.20;;;;;;10338455;28;20499;-72
2021/11/09 00:34:01;;;;;;;7.47;6.00;;;6.00;39.30;;;;;;10338829;28;20314;-72
2021/11/09 00:39:08;;;;;;;7.80;6.00;;;5.90;39.20;;;;;;10336222;28;20219;-68
2021/11/09 00:44:12;;;;;;;9.33;6.50;;;5.90;39.30;;;;;;10337841;28;20226;-68
2021/11/09 00:49:15;;;;;;;7.60;5.77;;;5.90;39.40;;;;;;10342912;28;20269;-68
2021/11/09 00:54:20;;;;;;;8.50;5.97;;;5.80;39.20;;;;;;10332446;28;20634;-68
2021/11/09 00:59:23;;;;;;;8.17;5.97;;;5.80;39.20;;;;;;10337970;28;20313;-68
2021/11/09 01:04:27;;;;;;;8.93;6.20;;;5.80;39.30;;;;;;10338773;28;20304;-68
2021/11/09 01:09:32;;;;;;;9.03;5.97;;;5.80;39.30;;;;;;10337627;28;20230;-68
2021/11/09 01:14:37;;;;;;;7.87;6.23;;;5.80;39.30;;;;;;10344330;28;20782;-68
2021/11/09 01:19:40;;;;;;;7.33;5.87;;;5.70;39.30;;;;;;10340077;28;20231;-68
2021/11/09 01:24:45;;;;;;;7.67;5.87;;;5.70;39.40;;;;;;10343649;28;20312;-68
2021/11/09 01:29:48;;;;;;;9.70;5.63;;;5.60;39.20;;;;;;10342152;28;20313;-68
2021/11/09 01:34:51;;;;;;;5.83;4.97;;;5.60;39.30;;;;;;10345216;28;20244;-68
2021/11/09 01:39:56;;;;;;;4.80;4.23;;;5.60;39.30;;;;;;10346488;28;20214;-68
2021/11/09 01:44:59;;;;;;;6.83;5.37;;;5.50;39.20;;;;;;10342480;28;20322;-68
2021/11/09 01:50:04;;;;;;;6.70;4.83;;;5.50;39.30;;;;;;10350473;28;20814;-68
2021/11/09 01:55:15;;;;;;;6.40;5.53;;;5.50;39.20;;;;;;10348519;28;20250;-68
2021/11/09 02:00:24;;;;;;;6.47;5.43;;;5.40;38.90;;;;;;10349167;28;21879;-72
2021/11/09 02:05:28;;;;;;;7.03;5.20;;;5.40;39.10;;;;;;10342348;28;20261;-73
2021/11/09 02:10:35;;;;;;;5.37;4.53;;;5.30;39.20;;;;;;10352487;28;20230;-72
2021/11/09 02:15:40;;;;;;;5.10;4.60;;;5.30;39.20;;;;;;10350312;28;20280;-73
2021/11/09 02:20:50;;;;;;;5.03;4.33;;;5.20;39.20;;;;;;10350529;28;20231;-73
2021/11/09 02:25:54;;;;;;;5.53;4.30;;;5.20;39.10;;;;;;10345796;28;20222;-73
2021/11/09 02:30:58;;;;;;;5.73;4.53;;;5.20;39.30;;;;;;10349579;28;20223;-73
2021/11/09 02:36:03;;;;;;;4.57;4.17;;;5.20;39.30;;;;;;10341564;28;20222;-73
2021/11/09 02:41:07;;;;;;;5.17;3.50;;;5.10;39.20;;;;;;10345137;28;20250;-73
2021/11/09 02:46:37;;;;;;;4.57;4.07;;;5.10;39.20;;;;;;10342086;28;20285;-73
2021/11/09 02:51:45;;;;;;;4.87;4.00;;;5.10;39.30;;;;;;10348799;28;20218;-72
2021/11/09 02:56:52;;;;;;;5.43;4.30;;;5.10;39.30;;;;;;10340092;28;20231;-72
2021/11/09 03:01:58;;;;;;;5.03;4.53;;;5.10;39.30;;;;;;10338928;28;20718;-72
2021/11/09 03:07:06;;;;;;;5.73;5.07;;;5.00;39.20;;;;;;10342932;28;20234;-73
2021/11/09 03:12:11;;;;;;;7.87;5.00;;;5.00;39.20;;;;;;10339852;28;20305;-72
2021/11/09 03:17:17;;;;;;;5.37;4.77;;;5.00;39.30;;;;;;10339598;28;20596;-72
2021/11/09 03:49:07;;;;;;;5.83;4.60;;;4.70;39.20;;;;;;10345105;28;20227;-73
2021/11/09 03:54:14;;;;;;;4.23;3.83;;;4.70;39.20;;;;;;10345515;28;20223;-72
2021/11/09 03:59:22;;;;;;;6.60;4.53;;;4.60;39.10;;;;;;10342347;28;20234;-72
2021/11/09 04:04:34;;;;;;;7.63;4.53;;;4.60;39.40;;;;;;10339048;28;20239;-73
2021/11/09 04:09:51;;;;;;;4.63;4.00;;;4.60;39.50;;;;;;10339951;28;20231;-72
2021/11/09 04:15:01;;;;;;;4.80;4.30;;;4.50;39.50;;;;;;10339899;28;20222;-72
2021/11/09 04:20:09;;;;;;;4.77;4.30;;;4.50;39.50;;;;;;10343313;28;20256;-72
2021/11/09 04:25:35;;;;;;;7.07;4.60;;;4.50;39.40;;;;;;10338745;28;20230;-72
2021/11/09 05:02:48;;;;;;;4.97;4.53;;;4.50;39.20;;;;;;10342355;28;20237;-72
2021/11/09 05:13:13;;;;;;;7.83;5.83;;;4.40;39.30;;;;;;10340923;28;20629;-72
2021/11/09 05:18:16;;;;;;;5.80;5.30;;;4.40;39.10;;;;;;10341371;28;20226;-72
2021/11/09 05:23:20;;;;;;;6.97;5.90;;;4.30;39.20;;;;;;10340503;28;20610;-72
2021/11/09 05:28:26;;;;;;;7.13;6.43;;;4.30;39.30;;;;;;10345049;28;20233;-73
2021/11/09 05:33:29;;;;;;;6.17;5.50;;;4.20;39.30;;;;;;10342887;28;20235;-72
2021/11/09 05:38:42;;;;;;;7.10;6.30;;;4.30;39.40;;;;;;10345906;28;20234;-72
2021/11/09 05:43:47;;;;;;;6.97;6.20;;;4.20;39.40;;;;;;10340495;28;20611;-72
2021/11/09 05:48:52;;;;;;;7.60;6.80;;;4.20;39.40;;;;;;10342429;28;20246;-72
2021/11/09 05:53:56;;;;;;;10.37;7.73;;;4.20;39.30;;;;;;10338004;28;20241;-72
2021/11/09 05:59:00;;;;;;;13.83;9.50;;;4.20;39.30;;;;;;10341018;28;20226;-72
2021/11/09 06:04:04;;;;;;;10.13;9.10;;;4.20;39.20;;;;;;10343551;28;20242;-72
2021/11/09 06:09:07;;;;;;;12.23;10.37;;;4.20;39.20;;;;;;10336738;28;20226;-73
2021/11/09 06:14:12;;;;;;;8.17;6.93;;;4.10;39.20;;;;;;10346282;28;20233;-73
2021/11/09 06:19:15;;;;;;;10.27;6.53;;;4.20;40.10;;;;;;10344199;28;20249;-73
2021/11/09 06:24:18;;;;;;;7.23;6.37;;;4.10;39.90;;;;;;10341346;28;20242;-73
2021/11/09 06:29:23;;;;;;;8.97;7.93;;;4.20;39.90;;;;;;10345009;28;20625;-73
2021/11/09 06:34:26;;;;;;;9.00;8.20;;;4.20;39.70;;;;;;10344812;28;20245;-73
2021/11/09 06:39:29;;;;;;;11.10;7.77;;;4.10;39.60;;;;;;10347775;28;20225;-73
2021/11/09 06:44:34;;;;;;;9.87;8.93;;;4.10;39.60;;;;;;10344600;28;20218;-73
2021/11/09 06:49:38;;;;;;;10.87;8.23;;;4.00;39.40;;;;;;10347043;28;20227;-73
2021/11/09 06:54:42;;;;;;;9.60;8.17;;;3.90;39.40;;;;;;10344337;28;20237;-73
2021/11/09 06:59:56;;;;;;;6.87;6.17;;;4.00;39.70;;;;;;10348308;28;20231;-72
2021/11/09 07:04:59;;;;;;;7.10;5.50;;;3.90;39.80;;;;;;10348121;28;20226;-73
2021/11/09 07:10:03;;;;;;;8.17;5.80;;;3.90;40.00;;;;;;10337271;28;20223;-72
2021/11/09 07:15:09;;;;;;;7.80;6.67;;;3.90;40.00;;;;;;10344540;28;20563;-71
2021/11/09 07:20:15;;;;;;;8.20;6.83;;;3.90;40.10;;;;;;10341570;28;20231;-72
2021/11/09 07:25:18;;;;;;;7.33;6.60;;;3.90;40.10;;;;;;10338409;28;20235;-72
2021/11/09 07:30:27;;;;;;;7.97;6.97;;;4.00;40.30;;;;;;10351514;28;20257;-73
2021/11/09 07:35:30;;;;;;;10.23;6.97;;;4.00;40.50;;;;;;10347358;28;20230;-72
2021/11/09 07:40:34;;;;;;;7.30;6.43;;;4.10;40.60;;;;;;10336914;28;20227;-72
2021/11/09 07:45:39;;;;;;;8.50;7.00;;;4.30;41.00;;;;;;10335468;28;20222;-72
2021/11/09 07:50:43;;;;;;;7.40;6.43;;;4.50;41.40;;;;;;10332181;28;20237;-72
2021/11/09 07:55:52;;;;;;;6.70;6.00;;;4.50;41.20;;;;;;10336752;28;20226;-72
2021/11/09 08:01:06;;;;;;;7.33;6.37;;;4.60;41.30;;;;;;10332184;28;20226;-72
2021/11/09 08:06:15;;;;;;;8.50;6.43;;;4.80;41.50;;;;;;10337124;28;20309;-72
2021/11/09 08:11:18;;;;;;;6.87;5.87;;;4.90;41.50;;;;;;10340493;28;20593;-73
2021/11/09 08:16:22;;;;;;;7.27;5.50;;;5.10;41.70;;;;;;10341895;28;21890;-73
2021/11/09 08:21:26;;;;;;;8.07;5.10;;;5.30;42.10;;;;;;10341549;28;20234;-73
2021/11/09 08:26:31;;;;;;;6.83;4.43;;;5.50;42.30;;;;;;10339810;28;20238;-73
2021/11/09 08:31:38;;;;;;;8.17;5.00;;;5.70;42.50;;;;;;10340162;28;20222;-73
2021/11/09 08:36:44;;;;;;;8.73;5.67;;;6.00;42.70;;;;;;10346273;28;20308;-73
2021/11/09 08:41:49;;;;;;;8.73;5.10;;;6.20;42.70;;;;;;10339911;28;20222;-73
2021/11/09 08:46:55;;;;;;;5.47;4.70;;;6.50;43.00;;;;;;10343311;28;20225;-74
2021/11/09 08:51:59;;;;;;;8.53;5.37;;;6.80;43.20;;;;;;10343608;28;20230;-74
2021/11/09 08:57:20;;;;;;;6.10;4.40;;;7.00;43.20;;;;;;10337416;28;20231;-73
2021/11/09 09:07:45;;;;;;;6.43;4.83;;;7.50;43.40;;;;;;10344096;28;20223;-73
2021/11/09 09:12:49;;;;;;;8.07;4.90;;;7.80;43.40;;;;;;10341521;28;20321;-73
2021/11/09 09:17:53;;;;;;;5.67;4.40;;;8.00;43.30;;;;;;10342835;28;20234;-73
2021/11/09 09:23:05;;;;;;;5.63;3.97;;;8.30;43.50;;;;;;10339598;28;20234;-73
2021/11/09 09:55:14;;;;;;;4.60;3.40;;;9.70;42.60;;;;;;10341361;28;20226;-74
2021/11/09 10:00:20;;;;;;;5.73;3.37;;;10.00;41.70;;;;;;10347500;28;20224;-73
2021/11/09 10:05:26;;;;;;;8.60;6.43;;;10.20;40.50;;;;;;10349604;28;20246;-73
2021/11/09 10:10:33;;;;;;;5.50;3.87;;;10.40;40.30;;;;;;10345253;28;20305;-73
2021/11/09 10:15:38;;;;;;;4.17;3.23;;;10.60;40.50;;;;;;10347229;28;20235;-73
2021/11/09 10:20:46;;;;;;;9.07;8.03;;;10.80;40.60;;;;;;10349718;28;20650;-73
2021/11/09 10:25:51;;;;;;;5.23;4.70;;;11.00;39.40;;;;;;10343976;28;20603;-73
2021/11/09 10:30:57;;;;;;;5.40;3.70;;;11.10;39.90;;;;;;10340083;28;20218;-73
2021/11/09 10:36:03;;;;;;;6.30;2.87;;;11.20;39.60;;;;;;10343340;28;20226;-73
2021/11/09 10:41:06;;;;;;;3.03;2.50;;;11.40;39.20;;;;;;10333002;28;20227;-73
2021/11/09 10:46:24;;;;;;;3.70;3.10;;;11.50;39.30;;;;;;10336733;28;20227;-73
2021/11/09 10:51:55;;;;;;;3.47;2.77;;;11.60;37.90;;;;;;10337869;28;20648;-73
2021/11/09 10:57:12;;;;;;;3.47;2.87;;;11.60;37.50;;;;;;10344078;28;20214;-74
2021/11/09 11:07:53;;;;;;;5.40;2.67;;;11.80;37.40;;;;;;10339289;28;20223;-73
2021/11/09 11:13:22;;;;;;;3.87;3.10;;;11.90;37.50;;;;;;10343322;28;20229;-73
2021/11/09 11:18:34;;;;;;;3.93;3.53;;;11.90;36.40;;;;;;10343089;28;20230;-73
2021/11/09 11:23:39;;;;;;;5.93;3.53;;;12.00;37.40;;;;;;10340286;28;20233;-73
2021/11/09 11:28:46;;;;;;;5.87;3.20;;;12.00;37.70;;;;;;10343343;28;20222;-73
2021/11/09 11:33:51;;;;;;;6.00;3.50;;;12.10;37.40;;;;;;10341120;28;20231;-73
2021/11/09 11:39:00;;;;;;;8.80;7.87;;;12.10;37.40;;;;;;10343827;28;20230;-73
2021/11/09 11:44:06;;;;;;;5.77;3.70;;;12.10;37.10;;;;;;10340484;28;20651;-73
2021/11/09 11:49:11;;;;;;;3.93;3.20;;;12.20;37.00;;;;;;10340429;28;20226;-73
2021/11/09 11:54:18;;;;;;;4.63;2.90;;;12.20;37.50;;;;;;10343660;28;20233;-72
2021/11/09 11:59:40;;;;;;;4.27;3.17;;;12.30;36.90;;;;;;10343188;28;22618;-73
2021/11/09 12:04:52;;;;;;;4.07;3.00;;;12.30;36.50;;;;;;10340624;28;20229;-73
2021/11/09 12:10:08;;;;;;;6.10;3.40;;;12.40;36.10;;;;;;10338128;28;20222;-73
2021/11/09 12:15:11;;;;;;;4.43;3.97;;;12.40;35.50;;;;;;10341630;28;20228;-73
2021/11/09 12:20:16;;;;;;;6.23;5.63;;;12.40;37.20;;;;;;10346806;28;20242;-73
2021/11/09 12:25:39;;;;;;;3.93;3.63;;;12.40;36.60;;;;;;10339222;28;20226;-73
2021/11/09 12:30:47;;;;;;;6.03;3.60;;;12.50;35.80;;;;;;10337898;28;20225;-69
2021/11/09 12:36:11;;;;;;;6.80;4.03;;;12.50;36.40;;;;;;10343132;28;20226;-73
2021/11/09 12:41:17;;;;;;;4.77;3.80;;;12.60;36.90;;;;;;10343641;28;20269;-73
2021/11/09 12:46:25;;;;;;;6.57;4.20;;;12.60;36.50;;;;;;10339895;28;20241;-72
2021/11/09 12:51:30;;;;;;;4.90;4.00;;;12.60;36.40;;;;;;10341378;28;20223;-73
2021/11/09 12:56:36;;;;;;;5.27;4.10;;;12.60;36.30;;;;;;10340257;28;20227;-73
2021/11/09 13:01:59;;;;;;;6.20;3.90;;;12.60;36.20;;;;;;10340441;28;20231;-73
2021/11/09 13:07:12;;;;;;;6.03;4.20;;;12.60;37.00;;;;;;10338030;28;20230;-72
2021/11/09 13:12:20;;;;;;;6.03;3.70;;;12.70;36.70;;;;;;10338526;28;20844;-72
2021/11/09 13:17:27;;;;;;;7.47;4.50;;;12.70;36.30;;;;;;10338545;28;20231;-72
2021/11/09 13:22:30;;;;;;;5.40;4.33;;;12.70;36.60;;;;;;10344711;28;20714;-72
2021/11/09 13:27:39;;;;;;;5.77;4.00;;;12.80;36.80;;;;;;10348023;28;20218;-73
2021/11/09 13:32:43;;;;;;;5.20;3.90;;;12.80;36.00;;;;;;10349645;28;20221;-73
2021/11/09 13:37:47;;;;;;;4.90;3.30;;;12.80;36.50;;;;;;10350762;28;20222;-72
2021/11/09 13:43:03;;;;;;;4.13;3.37;;;12.80;36.30;;;;;;10347688;28;20242;-72
2021/11/09 13:48:15;;;;;;;4.83;3.20;;;12.80;34.90;;;;;;10341064;28;20701;-71
2021/11/09 13:53:23;;;;;;;4.77;3.13;;;12.90;34.80;;;;;;10350700;28;20633;-72
2021/11/09 13:58:28;;;;;;;3.07;2.40;;;12.90;35.00;;;;;;10357544;28;20884;-71
2021/11/09 14:03:41;;;;;;;4.57;2.70;;;12.90;35.70;;;;;;10357235;28;20324;-72
2021/11/09 14:09:05;;;;;;;4.93;2.77;;;12.90;35.60;;;;;;10350138;28;20223;-72
2021/11/09 14:19:35;;;;;;;4.13;2.80;;;12.80;34.60;;;;;;10322156;28;20548;-70
2021/11/09 14:24:40;;;;;;;6.77;2.70;;;12.80;34.50;;;;;;10339756;28;20235;-70
2021/11/09 14:29:54;;;;;;;2.97;2.10;;;12.70;34.90;;;;;;10343657;28;20602;-71
2021/11/09 14:35:01;;;;;;;3.33;2.33;;;12.70;34.20;;;;;;10342016;28;20238;-70
2021/11/09 14:40:09;;;;;;;3.00;2.63;;;12.70;34.90;;;;;;10346717;28;20222;-70
2021/11/09 14:45:26;;;;;;;2.80;2.60;;;12.70;34.30;;;;;;10344729;28;20230;-70
2021/11/09 14:50:36;;;;;;;3.77;2.57;;;12.70;34.40;;;;;;10341852;28;20813;-71
2021/11/09 14:55:43;;;;;;;3.03;2.40;;;12.60;34.80;;;;;;10336074;28;20231;-72
2021/11/09 15:00:47;;;;;;;3.93;2.63;;;12.60;35.00;;;;;;10340933;28;20633;-72
2021/11/09 15:05:52;;;;;;;3.00;2.60;;;12.60;35.20;;;;;;10337252;28;20230;-72
2021/11/09 15:32:25;;;;;;;2.90;2.60;;;12.70;35.50;;;;;;10340099;28;20898;-72
2021/11/09 15:37:33;;;;;;;3.93;2.90;;;12.70;35.20;;;;;;10343119;28;20729;-72
2021/11/09 15:42:37;;;;;;;3.80;2.60;;;12.60;35.40;;;;;;10346855;28;20234;-72
2021/11/09 15:47:42;;;;;;;4.13;3.00;;;12.50;35.30;;;;;;10345357;28;20257;-72
2021/11/09 15:52:46;;;;;;;3.13;2.50;;;12.50;34.90;;;;;;10347111;28;20609;-73
2021/11/09 15:57:49;;;;;;;4.93;3.00;;;12.40;35.20;;;;;;10339558;28;20605;-72
2021/11/09 16:02:54;;;;;;;3.67;3.20;;;12.30;35.20;;;;;;10345100;28;20234;-72
2021/11/09 16:08:01;;;;;;;3.77;3.23;;;12.20;35.00;;;;;;10339265;28;20649;-68
2021/11/09 16:13:05;;;;;;;2.97;2.63;;;12.10;35.20;;;;;;10333909;28;20222;-69
2021/11/09 16:18:11;;;;;;;3.53;2.90;;;12.00;35.20;;;;;;10340937;28;20234;-68
2021/11/09 16:23:15;;;;;;;3.53;2.90;;;11.90;35.10;;;;;;10338617;28;20608;-69
2021/11/09 16:28:18;;;;;;;4.00;3.30;;;11.80;35.30;;;;;;10340008;28;20214;-68
2021/11/09 16:33:27;;;;;;;5.60;4.37;;;11.70;35.30;;;;;;10337219;28;20242;-69
2021/11/09 16:38:33;;;;;;;6.10;5.07;;;11.60;35.00;;;;;;10343616;28;20234;-69
2021/11/09 16:43:39;;;;;;;6.53;5.37;;;11.50;35.10;;;;;;10337847;28;20633;-71
2021/11/09 16:48:51;;;;;;;7.00;5.67;;;11.40;35.10;;;;;;10340791;28;20230;-72
2021/11/09 16:53:58;;;;;;;10.13;6.17;;;11.30;35.00;;;;;;10337202;28;20241;-72
2021/11/09 18:24:52;;;;;;;8.40;6.10;;;9.20;35.90;;;;;;10350726;28;20236;-71
2021/11/09 18:30:00;;;;;;;8.50;5.73;;;9.00;36.20;;;;;;10346787;28;20263;-70
2021/11/09 18:35:03;;;;;;;7.97;6.13;;;8.80;36.20;;;;;;10341628;28;20581;-70
2021/11/09 18:40:10;;;;;;;7.37;5.33;;;8.70;36.50;;;;;;10343323;28;20233;-68
2021/11/09 18:45:16;;;;;;;10.57;9.17;;;8.60;36.30;;;;;;10343556;28;20223;-68
2021/11/09 18:50:22;;;;;;;8.40;7.47;;;8.50;36.40;;;;;;10344014;28;20226;-68
2021/11/09 18:55:27;;;;;;;11.23;8.53;;;8.40;36.60;;;;;;10347755;28;20241;-68
2021/11/09 19:00:30;;;;;;;10.87;8.17;;;8.20;36.90;;;;;;10345469;28;20264;-72
2021/11/09 19:05:34;;;;;;;9.70;6.87;;;8.20;37.00;;;;;;10343199;28;20235;-72
2021/11/09 19:10:38;;;;;;;9.17;7.00;;;8.10;37.10;;;;;;10348466;28;20240;-72
2021/11/09 19:15:43;;;;;;;10.40;6.83;;;8.10;37.30;;;;;;10349620;28;20249;-72
2021/11/09 19:20:46;;;;;;;7.47;5.83;;;8.00;37.20;;;;;;10345774;28;20764;-72
2021/11/09 19:25:53;;;;;;;6.37;5.10;;;8.00;37.30;;;;;;10344774;28;20231;-73
2021/11/09 19:30:56;;;;;;;9.63;5.90;;;7.90;37.40;;;;;;10345633;28;20308;-72
2021/11/09 19:36:00;;;;;;;7.77;5.63;;;7.90;37.40;;;;;;10342779;28;20317;-73
2021/11/09 19:41:05;;;;;;;6.93;4.33;;;7.90;37.50;;;;;;10341950;28;20227;-72
2021/11/09 19:46:08;;;;;;;6.43;4.30;;;7.90;37.40;;;;;;10339407;28;20730;-72
2021/11/09 19:51:13;;;;;;;4.80;4.00;;;7.90;37.50;;;;;;10343555;28;20237;-72
2021/11/09 19:56:19;;;;;;;3.80;3.40;;;7.90;37.40;;;;;;10341341;28;20230;-72
2021/11/09 20:01:22;;;;;;;5.73;3.87;;;7.90;37.60;;;;;;10347521;28;20234;-74
2021/11/09 20:06:26;;;;;;;8.17;4.20;;;7.90;37.60;;;;;;10346099;28;20785;-72
2021/11/09 20:11:32;;;;;;;8.83;4.67;;;7.90;37.40;;;;;;10336178;28;20227;-71
2021/11/09 20:16:37;;;;;;;6.73;4.27;;;7.80;37.40;;;;;;10340638;28;20222;-71
2021/11/09 20:21:52;;;;;;;8.10;5.10;;;7.70;38.00;;;;;;10339305;28;20345;-71
2021/11/09 20:26:58;;;;;;;6.17;4.27;;;7.60;37.60;;;;;;10333641;28;20629;-71
2021/11/09 20:32:03;;;;;;;8.37;5.70;;;7.60;37.90;;;;;;10326195;28;20237;-73
2021/11/09 20:37:06;;;;;;;5.87;4.20;;;7.60;37.80;;;;;;10330952;28;20235;-72
2021/11/09 20:42:11;;;;;;;4.97;4.23;;;7.60;38.90;;;;;;10334616;28;20296;-72
2021/11/09 20:47:14;;;;;;;5.77;4.90;;;7.60;38.90;;;;;;10338673;28;20233;-72
2021/11/09 20:52:18;;;;;;;7.30;6.50;;;7.70;39.00;;;;;;10331357;28;20269;-72
2021/11/09 20:57:22;;;;;;;14.13;9.70;;;7.70;38.30;;;;;;10335994;28;20230;-72
2021/11/09 21:02:25;;;;;;;11.20;8.57;;;7.70;38.20;;;;;;10332260;28;20264;-72
2021/11/09 21:07:29;;;;;;;17.33;11.47;;;7.60;38.00;;;;;;10333650;28;20301;-72
2021/11/09 21:12:38;;;;;;;16.93;11.60;;;7.60;38.10;;;;;;10331351;28;20242;-72
2021/11/09 21:23:03;;;;;;;9.70;8.43;;;7.50;37.90;;;;;;10335080;28;20685;-71
2021/11/09 21:28:08;;;;;;;8.30;6.03;;;7.50;37.90;;;;;;10331635;28;20233;-72
2021/11/09 21:38:32;;;;;;;9.77;7.33;;;7.40;37.70;;;;;;10303619;28;20237;-72
2021/11/09 21:43:37;;;;;;;8.40;6.70;;;7.40;37.60;;;;;;10330028;28;20617;-72
2021/11/09 21:48:40;;;;;;;12.37;8.80;;;7.30;37.60;;;;;;10339083;28;20737;-72
2021/11/09 21:53:43;;;;;;;12.87;10.67;;;7.20;37.80;;;;;;10346878;28;20226;-71
2021/11/09 21:58:48;;;;;;;13.37;10.40;;;7.20;38.00;;;;;;10346880;28;20223;-67
2021/11/09 22:03:51;;;;;;;10.83;8.17;;;7.10;38.00;;;;;;10346608;28;20227;-68
2021/11/09 22:08:54;;;;;;;8.20;7.00;;;7.00;37.90;;;;;;10346201;28;20334;-68
2021/11/09 22:13:59;;;;;;;8.53;6.90;;;7.00;38.00;;;;;;10346808;28;20226;-67
2021/11/09 22:19:03;;;;;;;8.00;6.60;;;6.90;38.30;;;;;;10348590;28;20608;-67
2021/11/09 22:24:06;;;;;;;6.57;5.90;;;6.90;38.30;;;;;;10346081;28;20608;-68
2021/11/09 22:29:10;;;;;;;5.87;5.27;;;6.90;38.20;;;;;;10348838;28;20254;-68
2021/11/09 22:34:14;;;;;;;6.50;5.90;;;6.90;38.30;;;;;;10342008;28;20227;-67
2021/11/09 22:39:17;;;;;;;7.90;5.67;;;6.90;38.30;;;;;;10343096;28;20229;-68
2021/11/09 22:44:21;;;;;;;7.97;6.43;;;6.80;38.20;;;;;;10340842;28;20230;-71
2021/11/09 22:49:25;;;;;;;8.33;6.80;;;6.80;38.20;;;;;;10346194;28;20585;-71
2021/11/09 22:54:28;;;;;;;9.13;7.73;;;6.80;38.30;;;;;;10345196;28;20247;-71
2021/11/09 22:59:32;;;;;;;8.03;6.40;;;6.80;38.20;;;;;;10347698;28;20226;-71
2021/11/09 23:04:36;;;;;;;8.43;7.13;;;6.70;38.10;;;;;;10343332;28;20237;-71
2021/11/09 23:09:39;;;;;;;7.10;6.37;;;6.70;38.20;;;;;;10347669;28;20707;-71
2021/11/09 23:14:44;;;;;;;9.43;7.60;;;6.70;38.10;;;;;;10344176;28;20230;-72
2021/11/09 23:19:47;;;;;;;6.40;5.53;;;6.60;38.10;;;;;;10336392;28;20578;-71
2021/11/09 23:24:50;;;;;;;10.37;6.50;;;6.60;37.90;;;;;;10341702;28;20230;-71
2021/11/09 23:29:55;;;;;;;7.83;7.03;;;6.50;37.90;;;;;;10335200;28;20218;-71
2021/11/09 23:34:58;;;;;;;7.13;6.43;;;6.40;37.90;;;;;;10347660;28;20563;-71
2021/11/09 23:40:01;;;;;;;9.27;7.93;;;6.40;37.90;;;;;;10343005;28;20568;-71
2021/11/09 23:45:06;;;;;;;9.27;8.33;;;6.40;37.90;;;;;;10341329;28;20264;-71
2021/11/09 23:50:10;;;;;;;11.07;9.90;;;6.30;37.90;;;;;;10340629;28;20219;-71
2021/11/09 23:55:13;;;;;;;11.10;9.80;;;6.30;37.90;;;;;;10337333;28;20731;-71
